Time;durP1;ratioP1;P1;durP2;ratioP2;P2;SDS_P1;SDS_P2;PMS_P1;PMS_P2;Temp;Humidity;BMP_temperature;BMP_pressure;BME280_temperature;BME280_humidity;BME280_pressure;Samples;Min_cycle;Max_cycle;Signal;HPM_P1;HPM_P2
2023/03/20 00:01:27;;;;;;;17.77;7.35;;;;;;;-143.48;90.90;118439.88;5093210;28;20024;-69
2023/03/20 00:03:53;;;;;;;19.13;7.53;;;;;;;-143.48;90.42;118439.88;5094448;28;20039;-68
2023/03/20 00:06:21;;;;;;;18.60;7.43;;;;;;;-143.48;90.44;118439.88;5094635;28;20028;-69
2023/03/20 00:08:49;;;;;;;21.77;8.27;;;;;;;-143.48;90.82;118439.88;5094536;28;20028;-68
2023/03/20 00:11:29;;;;;;;20.73;8.65;;;;;;;-143.48;90.87;118439.88;5094390;28;20470;-68
2023/03/20 00:14:04;;;;;;;21.35;8.55;;;;;;;-143.48;90.71;118439.88;5094714;28;20032;-67
2023/03/20 00:16:33;;;;;;;21.33;9.48;;;;;;;-143.48;90.50;118439.88;5094580;28;20020;-68
2023/03/20 00:18:59;;;;;;;22.30;9.05;;;;;;;-143.48;90.11;118439.88;5093836;28;20028;-68
2023/03/20 00:21:25;;;;;;;23.50;8.82;;;;;;;-143.48;90.24;118439.88;5092931;28;20020;-68
2023/03/20 00:23:50;;;;;;;16.38;8.88;;;;;;;-143.48;89.04;118439.88;5092968;28;20078;-68
2023/03/20 00:26:18;;;;;;;17.23;8.60;;;;;;;-143.48;88.52;118439.88;5092939;28;20031;-68
2023/03/20 00:28:48;;;;;;;19.40;7.60;;;;;;;-143.48;87.36;118439.88;5092714;28;20050;-68
2023/03/20 00:31:25;;;;;;;13.65;7.50;;;;;;;-143.48;86.79;118439.88;5092886;28;20051;-69
2023/03/20 00:33:56;;;;;;;19.58;7.53;;;;;;;-143.48;85.75;118439.88;5093999;28;20051;-68
2023/03/20 00:36:23;;;;;;;14.23;6.90;;;;;;;-143.48;86.24;118439.88;5094252;28;20070;-68
2023/03/20 00:38:49;;;;;;;16.60;7.20;;;;;;;-143.48;84.29;118439.88;5093911;28;20107;-67
2023/03/20 00:41:22;;;;;;;12.35;6.47;;;;;;;-143.48;83.47;118439.88;5093921;28;20073;-69
2023/03/20 00:43:51;;;;;;;15.15;7.47;;;;;;;-143.48;83.20;118439.88;5092616;28;20032;-68
2023/03/20 00:46:17;;;;;;;13.93;6.90;;;;;;;-143.48;83.51;118439.88;5093830;28;20028;-68
2023/03/20 00:48:43;;;;;;;12.70;6.20;;;;;;;-143.48;83.09;118439.88;5105264;28;20444;-68
2023/03/20 00:51:09;;;;;;;14.30;6.95;;;;;;;-143.48;82.45;118439.88;5096192;28;20520;-69
2023/03/20 00:53:35;;;;;;;16.17;6.15;;;;;;;-143.48;82.87;118439.88;5114218;28;20043;-69
2023/03/20 00:56:01;;;;;;;14.88;6.85;;;;;;;-143.48;83.46;118439.88;5114350;28;20428;-68
2023/03/20 00:58:26;;;;;;;16.42;6.55;;;;;;;-143.48;82.51;118439.88;5114353;28;20115;-67
2023/03/20 01:00:52;;;;;;;15.50;5.90;;;;;;;-143.48;82.31;118439.88;5114232;28;20049;-68
2023/03/20 01:03:19;;;;;;;9.80;5.60;;;;;;;-143.48;80.68;118439.88;5100109;28;20058;-70
2023/03/20 01:05:45;;;;;;;15.57;5.80;;;;;;;-143.48;81.42;118439.88;5118229;28;20050;-69
2023/03/20 01:08:29;;;;;;;12.23;5.03;;;;;;;-143.48;79.66;118439.88;5118409;28;20399;-69
2023/03/20 01:10:57;;;;;;;12.38;5.35;;;;;;;-143.48;80.11;118439.88;5118352;28;20024;-69
2023/03/20 01:13:25;;;;;;;14.77;5.20;;;;;;;-143.48;79.81;118439.88;5118105;28;20015;-68
2023/03/20 01:15:51;;;;;;;9.15;5.20;;;;;;;-143.48;80.19;118439.88;5117923;28;20032;-68
2023/03/20 01:18:19;;;;;;;9.77;5.30;;;;;;;-143.48;80.32;118439.88;5117865;28;20444;-68
2023/03/20 01:20:45;;;;;;;13.80;5.80;;;;;;;-143.48;81.05;118439.88;5099758;28;20016;-68
2023/03/20 01:23:11;;;;;;;13.80;5.55;;;;;;;-143.48;81.47;118439.88;5117858;28;20023;-68
2023/03/20 01:25:37;;;;;;;11.32;5.68;;;;;;;-143.48;80.87;118439.88;5099627;28;20020;-68
2023/03/20 01:28:15;;;;;;;14.38;6.10;;;;;;;-143.48;81.44;118439.88;5099801;28;20023;-68
2023/03/20 01:30:40;;;;;;;12.88;5.90;;;;;;;-143.48;82.30;118439.88;5099856;28;20024;-69
2023/03/20 01:33:13;;;;;;;11.57;5.90;;;;;;;-143.48;81.76;118439.88;5099704;28;20481;-69
2023/03/20 01:35:38;;;;;;;15.38;6.53;;;;;;;-143.48;83.04;118439.88;5117852;28;20062;-69
2023/03/20 01:38:11;;;;;;;13.80;5.90;;;;;;;-143.48;82.63;118439.88;5117894;28;20055;-68
2023/03/20 01:41:01;;;;;;;14.82;6.63;;;;;;;-143.48;82.84;118439.88;5117950;28;20020;-69
2023/03/20 01:43:27;;;;;;;12.48;6.63;;;;;;;-143.48;82.92;118439.88;5087733;28;20402;-68
2023/03/20 01:46:14;;;;;;;15.10;6.50;;;;;;;-143.48;82.74;118439.88;5117622;28;20432;-68
2023/03/20 01:48:48;;;;;;;12.32;6.07;;;;;;;-143.48;84.12;118439.88;5117377;28;20041;-68
2023/03/20 01:51:13;;;;;;;12.15;5.85;;;;;;;-143.48;84.36;118439.88;5117209;28;20023;-68
2023/03/20 01:53:39;;;;;;;12.00;5.80;;;;;;;-143.48;84.77;118439.88;5117544;28;20054;-68
2023/03/20 01:56:04;;;;;;;14.45;6.07;;;;;;;-143.48;84.95;118439.88;5099147;28;20058;-69
2023/03/20 01:58:36;;;;;;;13.43;5.78;;;;;;;-143.48;85.38;118439.88;5117239;28;20023;-69
2023/03/20 02:01:03;;;;;;;13.73;6.13;;;;;;;-143.48;84.95;118439.88;5117345;28;20049;-68
2023/03/20 02:03:29;;;;;;;14.57;6.15;;;;;;;-143.48;85.43;118439.88;5117285;28;20463;-68
2023/03/20 02:05:56;;;;;;;13.48;6.07;;;;;;;-143.48;85.38;118439.88;5117294;28;20034;-68
2023/03/20 02:08:29;;;;;;;16.20;6.40;;;;;;;-143.48;85.87;118439.88;5099015;28;20122;-68
2023/03/20 02:10:55;;;;;;;;;;;;;;;-143.48;86.06;118439.88;5117539;28;20340;-68
2023/03/20 02:13:21;;;;;;;14.98;6.13;;;;;;;-143.48;85.64;118439.88;5098362;28;19907;-69
2023/03/20 02:16:06;;;;;;;18.95;6.38;;;;;;;-143.48;85.37;118439.88;5099598;28;20499;-69
2023/03/20 02:18:32;;;;;;;13.07;6.13;;;;;;;-143.48;85.51;118439.88;5099070;28;20047;-69
2023/03/20 02:21:35;;;;;;;14.63;6.40;;;;;;;-143.48;85.36;118439.88;5117441;28;20024;-69
2023/03/20 02:24:09;;;;;;;13.97;6.63;;;;;;;-143.48;85.72;118439.88;5117362;28;20550;-68
2023/03/20 02:27:08;;;;;;;15.40;6.47;;;;;;;-143.48;85.28;118439.88;5117650;28;20274;-68
2023/03/20 02:30:17;;;;;;;16.67;6.85;;;;;;;-143.48;84.73;118439.88;5117158;28;20043;-68
2023/03/20 02:33:10;;;;;;;14.52;6.28;;;;;;;-143.48;84.83;118439.88;5034263;28;20035;-67
2023/03/20 02:36:09;;;;;;;21.45;6.70;;;;;;;-143.48;85.55;118439.88;5034787;28;20060;-68
2023/03/20 02:38:54;;;;;;;13.57;6.75;;;;;;;-143.48;85.31;118439.88;5097892;28;20040;-69
2023/03/20 02:41:37;;;;;;;22.50;6.47;;;;;;;-143.48;85.62;118439.88;5125134;28;20077;-68
2023/03/20 02:44:31;;;;;;;18.27;6.55;;;;;;;-143.48;85.65;118439.88;5106957;28;20050;-69
2023/03/20 02:47:10;;;;;;;17.10;6.82;;;;;;;-143.48;85.55;118439.88;5107276;28;20463;-68
2023/03/20 02:49:51;;;;;;;15.45;6.50;;;;;;;-143.48;85.07;118439.88;5125117;28;20054;-69
2023/03/20 02:52:26;;;;;;;16.85;6.78;;;;;;;-143.48;85.02;118439.88;5125186;28;20046;-69
2023/03/20 02:55:00;;;;;;;14.75;7.20;;;;;;;-143.48;85.28;118439.88;5125916;28;20023;-69
2023/03/20 02:57:26;;;;;;;21.30;7.47;;;;;;;-143.48;85.02;118439.88;5106972;28;20031;-69
2023/03/20 02:59:57;;;;;;;18.45;7.47;;;;;;;-143.48;85.46;118439.88;5125827;28;20419;-70
2023/03/20 03:02:35;;;;;;;21.98;7.68;;;;;;;-143.48;85.04;118439.88;5133065;28;20028;-69
2023/03/20 03:05:08;;;;;;;19.02;7.43;;;;;;;-143.48;84.69;118439.88;5134653;28;20047;-69
2023/03/20 03:07:34;;;;;;;;;;;;;;;-143.48;84.66;118439.88;5117136;28;20057;-69
2023/03/20 03:10:09;;;;;;;18.20;6.75;;;;;;;-143.48;84.37;118439.88;5134154;28;19908;-69
2023/03/20 03:12:40;;;;;;;20.23;7.57;;;;;;;-143.48;84.57;118439.88;5134135;28;20051;-70
2023/03/20 03:15:30;;;;;;;16.92;7.65;;;;;;;-143.48;84.72;118439.88;5133789;28;20024;-71
2023/03/20 03:17:58;;;;;;;20.80;8.45;;;;;;;-143.48;84.46;118439.88;5130493;28;20038;-69
2023/03/20 03:20:36;;;;;;;26.00;8.50;;;;;;;-143.48;85.02;118439.88;5117909;28;20020;-69
2023/03/20 03:23:03;;;;;;;26.65;8.80;;;;;;;-143.48;84.66;118439.88;5117841;28;20030;-68
2023/03/20 03:25:32;;;;;;;18.35;8.85;;;;;;;-143.48;84.47;118439.88;5116487;28;20514;-68
2023/03/20 03:28:11;;;;;;;23.08;8.80;;;;;;;-143.48;83.90;118439.88;5098921;28;20382;-69
2023/03/20 03:30:38;;;;;;;22.65;9.10;;;;;;;-143.48;84.22;118439.88;5117126;28;20053;-68
2023/03/20 03:33:19;;;;;;;23.27;9.27;;;;;;;-143.48;84.03;118439.88;5116569;28;20031;-68
2023/03/20 03:35:46;;;;;;;26.73;9.95;;;;;;;-143.48;84.11;118439.88;5098000;28;20031;-68
2023/03/20 03:38:40;;;;;;;24.38;9.23;;;;;;;-143.48;84.03;118439.88;5116563;28;20019;-68
2023/03/20 03:41:18;;;;;;;20.15;9.18;;;;;;;-143.48;83.84;118439.88;5089670;28;20473;-69
2023/03/20 03:44:36;;;;;;;21.75;9.23;;;;;;;-143.48;83.99;118439.88;5098065;28;20019;-70
2023/03/20 03:47:20;;;;;;;24.40;10.30;;;;;;;-143.48;83.88;118439.88;5173261;27;20369;-39
2023/03/20 03:50:13;;;;;;;26.60;10.40;;;;;;;-143.48;83.54;118439.88;5152387;27;20030;-39
2023/03/20 03:52:40;;;;;;;25.60;11.05;;;;;;;-143.48;83.30;118439.88;5152714;27;20048;-40
2023/03/20 03:55:15;;;;;;;24.55;11.25;;;;;;;-143.48;83.78;118439.88;5152312;27;20059;-39
2023/03/20 03:57:45;;;;;;;23.02;10.45;;;;;;;-143.48;84.18;118439.88;5152854;27;20485;-40
2023/03/20 04:00:15;;;;;;;21.33;10.52;;;;;;;-143.48;84.12;118439.88;5152566;27;20376;-40
2023/03/20 04:02:44;;;;;;;25.73;10.50;;;;;;;-143.48;84.10;118439.88;5152366;27;20027;-40
2023/03/20 04:05:10;;;;;;;23.00;10.50;;;;;;;-143.48;84.52;118439.88;5140077;27;20106;-40
2023/03/20 04:07:36;;;;;;;26.55;10.82;;;;;;;-143.48;83.74;118439.88;5131954;27;20027;-40
2023/03/20 04:10:02;;;;;;;26.55;11.30;;;;;;;-143.48;84.57;118439.88;5131669;28;20069;-40
2023/03/20 04:12:38;;;;;;;25.05;10.85;;;;;;;-143.48;84.42;118439.88;5112873;28;20026;-40
2023/03/20 04:15:04;;;;;;;25.08;11.27;;;;;;;-143.48;84.61;118439.88;5131305;28;20064;-40
2023/03/20 04:17:30;;;;;;;27.45;10.98;;;;;;;-143.48;84.40;118439.88;5131187;28;20032;-40
2023/03/20 04:19:55;;;;;;;28.27;11.80;;;;;;;-143.48;84.60;118439.88;5131249;28;20031;-40
2023/03/20 04:22:21;;;;;;;26.30;11.20;;;;;;;-143.48;84.03;118439.88;5131170;27;20019;-40
2023/03/20 04:24:46;;;;;;;23.42;11.00;;;;;;;-143.48;84.35;118439.88;5130970;28;20469;-40
2023/03/20 04:27:12;;;;;;;25.42;11.32;;;;;;;-143.48;84.46;118439.88;5131347;28;20054;-40
2023/03/20 04:29:37;;;;;;;20.33;10.40;;;;;;;-143.48;84.32;118439.88;5131265;28;20134;-39
2023/03/20 04:32:03;;;;;;;21.25;10.38;;;;;;;-143.48;83.92;118439.88;5130953;28;20019;-39
2023/03/20 04:34:28;;;;;;;25.63;11.02;;;;;;;-143.48;84.58;118439.88;5131116;28;20441;-39
2023/03/20 04:36:54;;;;;;;25.73;10.98;;;;;;;-143.48;84.81;118439.88;5129688;27;20007;-40
2023/03/20 04:39:20;;;;;;;24.13;10.88;;;;;;;-143.48;84.66;118439.88;5131138;28;20430;-40
2023/03/20 04:41:46;;;;;;;30.17;10.43;;;;;;;-143.48;85.18;118439.88;5131061;28;20051;-39
2023/03/20 04:44:11;;;;;;;31.67;11.25;;;;;;;-143.48;85.13;118439.88;5130993;28;20024;-39
2023/03/20 04:46:36;;;;;;;22.80;11.02;;;;;;;-143.48;85.82;118439.88;5130364;28;20043;-39
2023/03/20 04:49:02;;;;;;;25.70;11.40;;;;;;;-143.48;85.91;118439.88;5130840;28;20020;-40
2023/03/20 04:51:27;;;;;;;22.00;10.93;;;;;;;-143.48;85.39;118439.88;5130903;28;20031;-40
2023/03/20 04:53:52;;;;;;;29.05;11.77;;;;;;;-143.48;85.21;118439.88;5131125;28;20424;-40
2023/03/20 04:56:18;;;;;;;28.60;11.82;;;;;;;-143.48;85.27;118439.88;5130463;28;20019;-40
2023/03/20 04:58:43;;;;;;;25.45;10.98;;;;;;;-143.48;85.15;118439.88;5116296;28;20022;-40
2023/03/20 05:01:08;;;;;;;27.35;12.73;;;;;;;-143.48;85.42;118439.88;5116746;28;20039;-40
2023/03/20 05:03:34;;;;;;;25.83;11.02;;;;;;;-143.48;85.40;118439.88;5116894;28;20027;-40
2023/03/20 05:05:59;;;;;;;27.15;11.00;;;;;;;-143.48;86.04;118439.88;5116729;28;20024;-40
2023/03/20 05:08:25;;;;;;;30.45;11.48;;;;;;;-143.48;85.70;118439.88;5116740;28;20016;-40
2023/03/20 05:10:50;;;;;;;27.13;11.05;;;;;;;-143.48;85.24;118439.88;5116840;28;20076;-40
2023/03/20 05:13:16;;;;;;;26.52;11.68;;;;;;;-143.48;85.41;118439.88;5116398;28;20095;-40
2023/03/20 05:15:41;;;;;;;22.85;10.90;;;;;;;-143.48;85.99;118439.88;5116466;28;20020;-40
2023/03/20 05:18:07;;;;;;;22.77;10.43;;;;;;;-143.48;85.70;118439.88;5116297;28;20068;-40
2023/03/20 05:20:32;;;;;;;18.98;10.32;;;;;;;-143.48;85.34;118439.88;5116840;28;20121;-40
2023/03/20 05:22:57;;;;;;;23.38;10.70;;;;;;;-143.48;85.72;118439.88;5116526;28;20023;-40
2023/03/20 05:25:23;;;;;;;24.70;10.93;;;;;;;-143.48;85.99;118439.88;5116211;28;20020;-40
2023/03/20 05:27:48;;;;;;;19.50;10.55;;;;;;;-143.48;86.50;118439.88;5116405;28;20059;-40
2023/03/20 05:30:14;;;;;;;23.45;10.82;;;;;;;-143.48;85.74;118439.88;5116601;28;20050;-40
2023/03/20 05:32:40;;;;;;;25.80;12.43;;;;;;;-143.48;85.42;118439.88;5116103;28;20512;-40
2023/03/20 05:35:07;;;;;;;25.85;11.90;;;;;;;-143.48;85.41;118439.88;5116369;28;20026;-40
2023/03/20 05:37:33;;;;;;;23.17;11.07;;;;;;;-143.48;85.54;118439.88;5115957;28;20030;-40
2023/03/20 05:39:58;;;;;;;21.58;11.15;;;;;;;-143.48;85.10;118439.88;5115053;28;20024;-40
2023/03/20 05:42:24;;;;;;;25.10;11.50;;;;;;;-143.48;85.27;118439.88;5116095;28;20023;-40
2023/03/20 05:44:49;;;;;;;19.58;11.07;;;;;;;-143.48;85.43;118439.88;5115873;28;20031;-39
2023/03/20 05:47:14;;;;;;;24.15;10.98;;;;;;;-143.48;85.53;118439.88;5116082;28;20469;-40
2023/03/20 05:49:39;;;;;;;22.92;11.57;;;;;;;-143.48;85.00;118439.88;5115807;28;20028;-40
2023/03/20 05:52:05;;;;;;;24.30;11.85;;;;;;;-143.48;85.31;118439.88;5115881;28;20031;-40
2023/03/20 05:54:30;;;;;;;22.75;11.95;;;;;;;-143.48;85.43;118439.88;5115955;28;20355;-41
2023/03/20 05:56:56;;;;;;;22.20;11.25;;;;;;;-143.48;85.21;118439.88;5115612;28;20023;-40
2023/03/20 05:59:21;;;;;;;23.20;11.50;;;;;;;-143.48;86.01;118439.88;5115612;28;20032;-39
2023/03/20 06:01:46;;;;;;;21.25;11.73;;;;;;;-143.48;86.08;118439.88;5097212;28;20023;-39
2023/03/20 06:04:11;;;;;;;23.35;11.75;;;;;;;-143.48;85.97;118439.88;5115633;28;20023;-39
2023/03/20 06:06:37;;;;;;;22.55;11.93;;;;;;;-143.48;85.94;118439.88;5115344;28;20076;-40
2023/03/20 06:09:03;;;;;;;20.30;11.52;;;;;;;-143.48;85.99;118439.88;5114384;28;20443;-40
2023/03/20 06:11:29;;;;;;;20.70;11.93;;;;;;;-143.48;86.12;118439.88;5115260;28;20055;-40
2023/03/20 06:13:56;;;;;;;27.00;12.50;;;;;;;-143.48;86.75;118439.88;5115182;28;20020;-39
2023/03/20 06:16:22;;;;;;;23.75;11.63;;;;;;;-143.48;86.59;118439.88;5115142;28;20015;-39
2023/03/20 06:18:48;;;;;;;26.33;11.65;;;;;;;-143.48;85.88;118439.88;5096920;28;20034;-40
2023/03/20 06:21:13;;;;;;;26.42;12.63;;;;;;;-143.48;86.59;118439.88;5115443;28;20069;-40
2023/03/20 06:23:38;;;;;;;25.27;12.63;;;;;;;-143.48;86.53;118439.88;5115335;28;20114;-39
2023/03/20 06:26:04;;;;;;;23.20;12.77;;;;;;;-143.48;87.20;118439.88;5114885;28;20027;-40
2023/03/20 06:28:29;;;;;;;23.80;12.63;;;;;;;-143.48;87.03;118439.88;5115357;28;20114;-40
2023/03/20 06:30:55;;;;;;;20.60;11.93;;;;;;;-143.48;87.10;118439.88;5115210;28;20453;-40
2023/03/20 06:33:20;;;;;;;27.02;12.48;;;;;;;-143.48;87.26;118439.88;5115174;28;20325;-40
2023/03/20 06:35:47;;;;;;;26.55;12.63;;;;;;;-143.48;87.63;118439.88;5115049;28;20015;-40
2023/03/20 06:38:12;;;;;;;25.58;11.90;;;;;;;-143.48;87.25;118439.88;5096571;28;20027;-40
2023/03/20 06:40:38;;;;;;;26.58;12.50;;;;;;;-143.48;87.44;118439.88;5096637;28;20381;-40
2023/03/20 06:43:04;;;;;;;24.20;11.57;;;;;;;-143.48;87.34;118439.88;5115334;28;20023;-40
2023/03/20 06:45:30;;;;;;;28.33;12.85;;;;;;;-143.48;87.16;118439.88;5114654;28;20044;-40
2023/03/20 06:47:55;;;;;;;22.77;12.15;;;;;;;-143.48;87.21;118439.88;5114416;28;20027;-40
2023/03/20 06:50:21;;;;;;;21.75;11.95;;;;;;;-143.48;87.69;118439.88;5114806;28;20023;-40
2023/03/20 06:52:47;;;;;;;21.05;11.90;;;;;;;-143.48;87.10;118439.88;5115005;28;20339;-40
2023/03/20 06:55:12;;;;;;;26.92;11.77;;;;;;;-143.48;87.13;118439.88;5114719;28;20473;-40
2023/03/20 06:57:38;;;;;;;24.02;11.27;;;;;;;-143.48;86.74;118439.88;5114616;28;20051;-40
2023/03/20 07:00:04;;;;;;;23.83;12.10;;;;;;;-143.48;87.42;118439.88;5114682;28;20098;-40
2023/03/20 07:02:30;;;;;;;28.25;11.32;;;;;;;-143.48;87.40;118439.88;5114659;28;20489;-40
2023/03/20 07:04:56;;;;;;;27.95;11.40;;;;;;;-143.48;87.61;118439.88;5114409;28;20103;-40
2023/03/20 07:07:21;;;;;;;24.45;11.52;;;;;;;-143.48;87.18;118439.88;5114247;28;20027;-40
2023/03/20 07:09:47;;;;;;;24.95;10.77;;;;;;;-143.48;87.70;118439.88;5114827;28;20019;-40
2023/03/20 07:12:13;;;;;;;21.75;11.23;;;;;;;-143.48;87.38;118439.88;5114621;28;20023;-40
2023/03/20 07:14:42;;;;;;;24.85;10.88;;;;;;;-143.48;86.63;118439.88;5114492;28;20087;-39
2023/03/20 07:17:09;;;;;;;22.27;10.82;;;;;;;-143.48;86.92;118439.88;5096386;28;20075;-40
2023/03/20 07:19:37;;;;;;;27.67;10.32;;;;;;;-143.48;86.37;118439.88;5114018;28;20028;-40
2023/03/20 07:22:06;;;;;;;25.27;12.00;;;;;;;-143.48;87.00;118439.88;5114059;28;20381;-40
2023/03/20 07:24:32;;;;;;;26.33;10.60;;;;;;;-143.48;86.84;118439.88;5114260;28;20027;-39
2023/03/20 07:26:58;;;;;;;25.50;10.38;;;;;;;-143.48;86.89;118439.88;5113793;28;20472;-40
2023/03/20 07:29:24;;;;;;;25.85;11.15;;;;;;;-143.48;86.45;118439.88;5113946;28;20055;-40
2023/03/20 07:31:49;;;;;;;20.05;9.63;;;;;;;-143.48;86.14;118439.88;5114053;28;20027;-39
2023/03/20 07:34:15;;;;;;;23.30;9.75;;;;;;;-143.48;85.96;118439.88;5114014;28;20462;-39
2023/03/20 07:36:41;;;;;;;26.98;10.23;;;;;;;-143.48;86.11;118439.88;5114083;28;20026;-40
2023/03/20 07:39:07;;;;;;;26.67;10.38;;;;;;;-143.48;86.00;118439.88;5095626;28;20023;-40
2023/03/20 07:41:32;;;;;;;20.08;9.27;;;;;;;-143.48;85.49;118439.88;5113648;28;20051;-39
2023/03/20 07:43:58;;;;;;;19.92;9.23;;;;;;;-143.48;85.15;118439.88;5113610;28;20489;-40
2023/03/20 07:46:24;;;;;;;19.13;9.20;;;;;;;-143.48;85.55;118439.88;5113465;28;20130;-39
2023/03/20 07:48:50;;;;;;;17.25;9.50;;;;;;;-143.48;85.65;118439.88;5113514;28;20059;-40
2023/03/20 07:51:15;;;;;;;21.25;8.45;;;;;;;-143.48;84.95;118439.88;5114144;28;20054;-41
2023/03/20 07:53:40;;;;;;;19.38;8.65;;;;;;;-143.48;84.59;118439.88;5113514;28;20028;-39
2023/03/20 07:56:06;;;;;;;20.20;8.77;;;;;;;-143.48;83.64;118439.88;5095134;28;20500;-41
2023/03/20 07:58:31;;;;;;;19.55;8.20;;;;;;;-143.48;83.01;118439.88;5113023;28;20096;-41
2023/03/20 08:00:57;;;;;;;22.73;8.90;;;;;;;-143.48;83.52;118439.88;5112048;28;20054;-41
2023/03/20 08:03:23;;;;;;;18.60;8.35;;;;;;;-143.48;82.96;118439.88;5094952;28;20063;-40
2023/03/20 08:05:48;;;;;;;25.02;8.57;;;;;;;-143.48;82.05;118439.88;5113674;28;20023;-41
2023/03/20 08:08:14;;;;;;;19.30;8.38;;;;;;;-143.48;83.05;118439.88;5113475;28;20095;-41
2023/03/20 08:10:39;;;;;;;18.95;8.00;;;;;;;-143.48;82.93;118439.88;5113419;28;20030;-40
2023/03/20 08:13:04;;;;;;;20.55;8.20;;;;;;;-143.48;82.60;118439.88;5113454;28;20385;-41
2023/03/20 08:15:30;;;;;;;19.33;7.70;;;;;;;-143.48;82.08;118439.88;5112352;28;20020;-40
2023/03/20 08:17:57;;;;;;;23.90;8.13;;;;;;;-143.48;82.50;118439.88;5113335;28;20462;-40
2023/03/20 08:20:23;;;;;;;18.85;7.50;;;;;;;-143.48;82.41;118439.88;5113551;28;20028;-41
2023/03/20 08:22:48;;;;;;;19.73;7.65;;;;;;;-143.48;82.03;118439.88;5113481;28;20355;-40
2023/03/20 08:25:14;;;;;;;15.90;7.38;;;;;;;-143.48;82.34;118439.88;5113983;28;20081;-41
2023/03/20 08:27:39;;;;;;;18.98;7.40;;;;;;;-143.48;81.39;118439.88;5113226;28;20035;-41
2023/03/20 08:30:05;;;;;;;21.67;7.55;;;;;;;-143.48;81.50;118439.88;5113370;28;20415;-41
2023/03/20 08:32:31;;;;;;;15.63;6.18;;;;;;;-143.48;80.66;118439.88;5114859;28;20055;-41
2023/03/20 08:34:56;;;;;;;17.15;6.68;;;;;;;-143.48;80.47;118439.88;5117277;28;20053;-41
2023/03/20 08:37:22;;;;;;;20.05;6.28;;;;;;;-143.48;80.44;118439.88;5117369;28;20032;-41
2023/03/20 08:39:47;;;;;;;17.00;6.63;;;;;;;-143.48;81.06;118439.88;5117084;28;20422;-40
2023/03/20 08:42:13;;;;;;;15.82;7.10;;;;;;;-143.48;82.37;118439.88;5117061;28;20027;-41
2023/03/20 08:44:39;;;;;;;19.17;6.72;;;;;;;-143.48;82.33;118439.88;5117727;28;20023;-40
2023/03/20 08:47:06;;;;;;;16.88;6.63;;;;;;;-143.48;83.65;118439.88;5116245;28;20083;-41
2023/03/20 08:49:32;;;;;;;17.80;7.00;;;;;;;-143.48;84.34;118439.88;5116844;28;20034;-40
2023/03/20 08:51:58;;;;;;;23.20;7.43;;;;;;;-143.48;85.32;118439.88;5116859;28;20031;-41
2023/03/20 08:54:24;;;;;;;21.08;7.43;;;;;;;-143.48;85.40;118439.88;5116815;28;20035;-41
2023/03/20 08:56:49;;;;;;;21.40;6.97;;;;;;;-143.48;86.38;118439.88;5117093;28;20374;-41
2023/03/20 08:59:15;;;;;;;15.60;6.97;;;;;;;-143.48;86.07;118439.88;5116895;28;20023;-41
2023/03/20 09:01:40;;;;;;;14.50;6.75;;;;;;;-143.48;87.34;118439.88;5116651;28;20031;-40
2023/03/20 09:04:05;;;;;;;18.90;7.50;;;;;;;-143.48;87.83;118439.88;5116527;28;20102;-40
2023/03/20 09:06:34;;;;;;;19.83;7.35;;;;;;;-143.48;87.78;118439.88;5117058;28;20362;-41
2023/03/20 09:08:59;;;;;;;17.20;7.35;;;;;;;-143.48;87.60;118439.88;5098211;28;20114;-41
2023/03/20 09:11:25;;;;;;;23.52;8.32;;;;;;;-143.48;89.35;118439.88;5116297;28;20110;-41
2023/03/20 09:13:50;;;;;;;20.67;7.03;;;;;;;-143.48;87.91;118439.88;5098262;28;20115;-41
2023/03/20 09:16:15;;;;;;;19.00;6.50;;;;;;;-143.48;88.34;118439.88;5116741;28;20047;-40
2023/03/20 09:18:41;;;;;;;17.42;6.97;;;;;;;-143.48;87.85;118439.88;5116565;28;20023;-40
2023/03/20 09:21:06;;;;;;;18.05;6.93;;;;;;;-143.48;89.19;118439.88;5116459;28;20396;-41
2023/03/20 09:23:32;;;;;;;21.95;7.13;;;;;;;-143.48;89.18;118439.88;5116572;28;20023;-41
2023/03/20 09:25:57;;;;;;;18.23;6.90;;;;;;;-143.48;89.03;118439.88;5097736;28;20478;-41
2023/03/20 09:28:23;;;;;;;17.83;7.05;;;;;;;-143.48;88.00;118439.88;5116029;28;20028;-41
2023/03/20 09:30:48;;;;;;;20.45;7.68;;;;;;;-143.48;88.30;118439.88;5116079;28;20024;-41
2023/03/20 09:33:14;;;;;;;19.48;7.03;;;;;;;-143.48;88.26;118439.88;5116205;28;20038;-41
2023/03/20 09:35:40;;;;;;;17.15;6.97;;;;;;;-143.48;88.29;118439.88;5116295;28;20018;-41
2023/03/20 09:38:05;;;;;;;18.75;7.40;;;;;;;-143.48;87.72;118439.88;5115999;28;20031;-41
2023/03/20 09:40:50;;;;;;;17.15;7.03;;;;;;;-143.48;88.35;118439.88;5116212;28;20073;-40
2023/03/20 09:43:18;;;;;;;21.67;6.97;;;;;;;-143.48;88.51;118439.88;5115969;28;20035;-41
2023/03/20 09:46:03;;;;;;;16.55;6.85;;;;;;;-143.48;88.83;118439.88;5115644;28;20482;-40
2023/03/20 09:48:35;;;;;;;17.27;6.47;;;;;;;-143.48;88.40;118439.88;5116049;28;20023;-40
2023/03/20 09:51:06;;;;;;;16.75;6.40;;;;;;;-143.48;89.43;118439.88;5116441;28;20027;-41
2023/03/20 09:53:31;;;;;;;19.10;6.50;;;;;;;-143.48;89.67;118439.88;5115988;28;20076;-41
2023/03/20 09:55:58;;;;;;;18.60;6.75;;;;;;;-143.48;89.12;118439.88;5115642;28;20028;-40
2023/03/20 09:58:26;;;;;;;22.20;7.90;;;;;;;-143.48;89.60;118439.88;5115955;28;20553;-41
2023/03/20 10:00:56;;;;;;;16.58;6.32;;;;;;;-143.48;89.20;118439.88;5115921;28;20039;-40
2023/03/20 10:03:36;;;;;;;15.85;6.82;;;;;;;-143.48;89.08;118439.88;5116043;28;20522;-41
2023/03/20 10:06:10;;;;;;;22.27;7.25;;;;;;;-143.48;88.95;118439.88;5115655;28;20027;-41
2023/03/20 10:08:37;;;;;;;19.00;7.57;;;;;;;-143.48;88.61;118439.88;5097883;28;20050;-39
2023/03/20 10:11:08;;;;;;;19.40;7.07;;;;;;;-143.48;89.57;118439.88;5115602;28;20024;-40
2023/03/20 10:13:36;;;;;;;16.35;6.60;;;;;;;-143.48;89.03;118439.88;5115550;28;20031;-41
2023/03/20 10:16:23;;;;;;;15.02;6.93;;;;;;;-143.48;89.17;118439.88;5115418;28;20053;-40
2023/03/20 10:19:00;;;;;;;17.55;7.13;;;;;;;-143.48;89.13;118439.88;5115788;28;20121;-41
2023/03/20 10:21:42;;;;;;;20.25;6.53;;;;;;;-143.48;88.20;118439.88;5115328;28;20075;-41
2023/03/20 10:24:18;;;;;;;15.70;6.07;;;;;;;-143.48;88.51;118439.88;5097294;28;20446;-41
2023/03/20 10:26:46;;;;;;;16.63;5.90;;;;;;;-143.48;88.18;118439.88;5115083;28;20024;-41
2023/03/20 10:29:26;;;;;;;15.55;6.07;;;;;;;-143.48;88.54;118439.88;5114997;28;20360;-41
2023/03/20 10:31:58;;;;;;;20.27;6.55;;;;;;;-143.48;88.69;118439.88;5114964;28;20531;-41
2023/03/20 10:34:36;;;;;;;19.65;7.82;;;;;;;-143.48;89.18;118439.88;5115215;28;20488;-41
2023/03/20 10:37:32;;;;;;;20.88;8.02;;;;;;;-143.48;90.31;118439.88;5115154;28;20030;-41
2023/03/20 10:40:30;;;;;;;21.17;7.53;;;;;;;-143.48;89.69;118439.88;5115287;28;20028;-41
2023/03/20 10:43:00;;;;;;;13.80;6.65;;;;;;;-143.48;89.69;118439.88;5114760;28;20373;-41
2023/03/20 10:45:33;;;;;;;15.40;7.47;;;;;;;-143.48;90.58;118439.88;5114664;28;20493;-40
2023/03/20 10:48:05;;;;;;;21.67;7.05;;;;;;;-143.48;89.91;118439.88;5114930;28;20055;-41
2023/03/20 10:50:37;;;;;;;21.45;7.70;;;;;;;-143.48;90.76;118439.88;5114539;28;20020;-41
2023/03/20 10:53:04;;;;;;;19.27;8.50;;;;;;;-143.48;91.44;118439.88;5114555;28;20070;-41
2023/03/20 10:55:33;;;;;;;22.10;8.55;;;;;;;-143.48;91.06;118439.88;5114012;28;20020;-41
2023/03/20 10:58:10;;;;;;;22.67;8.85;;;;;;;-143.48;91.70;118439.88;5114479;28;20380;-41
2023/03/20 11:00:36;;;;;;;19.65;9.38;;;;;;;-143.48;91.90;118439.88;5114359;28;20020;-41
2023/03/20 11:03:04;;;;;;;23.25;9.00;;;;;;;-143.48;91.40;118439.88;5114242;28;20023;-41
2023/03/20 11:05:35;;;;;;;21.92;9.02;;;;;;;-143.48;91.18;118439.88;5113381;28;20047;-41
2023/03/20 11:08:11;;;;;;;18.55;8.98;;;;;;;-143.48;91.07;118439.88;5114768;28;20536;-41
2023/03/20 11:10:40;;;;;;;25.30;9.52;;;;;;;-143.48;91.42;118439.88;5113607;28;20023;-41